Terminal Aerodrome Forecast
Issued by NWS Sterling, VA

Current Version | Previous Version | Graphics & Text | Print | Product List | Glossary On
Versions: 1 2 3 4 5 6 7 8 9 10 11 12 13 14 15 16 17 18 19 20 21 22 23 24 25 26
283
FTUS41 KLWX 281134
TAFDCA
TAF
KDCA 281134Z 2812/2912 08005KT 5SM -SHRA OVC015
     FM281300 08007KT 3SM -SHRA BR OVC008
     FM281800 07006KT P6SM OVC010
     FM290600 06006KT P6SM -DZ BKN008=

USA.gov is the U.S. government's official web portal to all federal, state and local government web resources and services.